Time;durP1;ratioP1;P1;durP2;ratioP2;P2;SDS_P1;SDS_P2;PMS_P1;PMS_P2;Temp;Humidity;BMP_temperature;BMP_pressure;BME280_temperature;BME280_humidity;BME280_pressure;Samples;Min_cycle;Max_cycle;Signal;HPM_P1;HPM_P2
2022/03/17 00:00:34;;;;;;;37.25;24.45;;;;;;;6.07;82.38;97069.31;2068884;28;20218;-65
2022/03/17 00:01:36;;;;;;;35.83;22.60;;;;;;;6.11;82.81;97078.69;2067017;28;20198;-65
2022/03/17 00:02:38;;;;;;;37.20;22.92;;;;;;;6.07;82.96;97074.53;2071463;28;20220;-65
2022/03/17 00:03:39;;;;;;;39.45;23.67;;;;;;;6.07;82.96;97073.69;2069479;28;20198;-64
2022/03/17 00:04:41;;;;;;;33.85;22.15;;;;;;;6.29;82.06;97073.59;2065793;28;20277;-64
2022/03/17 00:05:42;;;;;;;37.95;25.92;;;;;;;6.34;81.48;97072.47;2065485;28;20230;-65
2022/03/17 00:06:44;;;;;;;36.72;23.92;;;;;;;6.33;81.59;97075.13;2066918;28;20202;-65
2022/03/17 00:07:46;;;;;;;38.40;23.45;;;;;;;6.33;81.68;97083.81;2067647;28;20336;-64
2022/03/17 00:08:48;;;;;;;36.03;24.52;;;;;;;6.32;81.67;97083.88;2068146;28;20748;-64
2022/03/17 00:09:50;;;;;;;37.95;23.75;;;;;;;6.24;82.08;97093.78;2069552;28;20626;-65
2022/03/17 00:10:52;;;;;;;34.30;24.60;;;;;;;6.24;82.27;97091.16;2069217;28;20226;-64
2022/03/17 00:11:54;;;;;;;34.80;24.02;;;;;;;6.09;82.58;97090.06;2071394;28;20202;-65
2022/03/17 00:12:56;;;;;;;36.85;23.10;;;;;;;6.00;83.00;97086.13;2071968;28;20664;-65
2022/03/17 00:13:57;;;;;;;38.15;24.13;;;;;;;6.14;82.36;97085.53;2071964;28;20226;-65
2022/03/17 00:14:59;;;;;;;34.85;23.23;;;;;;;6.04;82.83;97082.47;2071635;28;20232;-65
2022/03/17 00:16:00;;;;;;;37.13;23.42;;;;;;;5.93;83.34;97084.66;2072509;28;20210;-64
2022/03/17 00:17:02;;;;;;;36.50;23.65;;;;;;;5.88;83.63;97095.25;2071505;28;20224;-65
2022/03/17 00:18:04;;;;;;;37.78;23.17;;;;;;;5.82;83.83;97094.66;2068665;28;20198;-65
2022/03/17 00:19:07;;;;;;;39.92;25.10;;;;;;;5.80;84.10;97091.28;2070737;28;20737;-64
2022/03/17 00:20:10;;;;;;;35.55;23.85;;;;;;;5.85;83.95;97082.38;2069105;28;20213;-65
2022/03/17 00:21:12;;;;;;;38.30;24.77;;;;;;;5.82;83.96;97085.13;2068372;28;20198;-65
2022/03/17 00:22:16;;;;;;;36.38;24.40;;;;;;;5.68;84.62;97072.66;2067265;28;20213;-64
2022/03/17 00:23:18;;;;;;;38.88;25.58;;;;;;;5.82;84.21;97076.44;2068769;28;20201;-65
2022/03/17 00:24:19;;;;;;;37.95;23.70;;;;;;;5.83;84.26;97080.75;2070368;28;20202;-64
2022/03/17 00:25:21;;;;;;;44.47;25.83;;;;;;;5.84;84.39;97080.69;2069372;28;20219;-64
2022/03/17 00:26:23;;;;;;;35.70;23.73;;;;;;;5.82;84.21;97074.72;2068812;28;20202;-65
2022/03/17 00:27:24;;;;;;;44.05;24.85;;;;;;;5.91;83.90;97078.66;2068077;28;20524;-65
2022/03/17 00:28:26;;;;;;;39.00;24.13;;;;;;;5.96;83.77;97081.97;2067930;28;20198;-65
2022/03/17 00:29:33;;;;;;;38.65;24.83;;;;;;;6.11;82.93;97081.28;2069887;28;20198;-64
2022/03/17 00:30:34;;;;;;;38.35;26.23;;;;;;;6.01;83.35;97079.16;2067919;28;20228;-64
2022/03/17 00:31:37;;;;;;;38.25;23.73;;;;;;;5.99;83.73;97066.22;2068754;28;20367;-65
2022/03/17 00:32:39;;;;;;;38.50;24.42;;;;;;;5.96;83.38;97074.16;2068561;28;20247;-64
2022/03/17 00:33:41;;;;;;;34.95;23.35;;;;;;;5.96;83.46;97071.56;2066693;28;20198;-65
2022/03/17 00:36:02;;;;;;;42.30;25.88;;;;;;;6.08;83.02;97071.03;2067486;28;20226;-65
2022/03/17 00:37:04;;;;;;;36.83;24.73;;;;;;;6.17;82.35;97074.97;2070219;28;20206;-65
2022/03/17 00:38:08;;;;;;;39.58;25.77;;;;;;;6.11;82.89;97070.03;2065771;28;20206;-64
2022/03/17 00:39:10;;;;;;;37.13;25.42;;;;;;;6.12;82.51;97069.97;2070657;28;20354;-64
2022/03/17 00:40:13;;;;;;;37.90;22.80;;;;;;;6.11;82.72;97070.88;2069697;28;20581;-64
2022/03/17 00:41:14;;;;;;;38.25;25.40;;;;;;;6.22;82.12;97067.00;2068107;28;20198;-65
2022/03/17 00:42:17;;;;;;;48.08;25.98;;;;;;;6.16;82.25;97068.09;2064340;28;20572;-64
2022/03/17 00:43:24;;;;;;;41.10;26.00;;;;;;;6.14;82.47;97072.53;2066894;28;20221;-65
2022/03/17 00:44:26;;;;;;;39.88;24.85;;;;;;;6.17;82.34;97074.97;2067944;28;20599;-64
2022/03/17 00:45:27;;;;;;;37.92;25.08;;;;;;;6.11;82.61;97068.28;2068087;28;20228;-64
2022/03/17 00:46:29;;;;;;;41.58;25.63;;;;;;;6.09;83.08;97069.25;2067733;28;20287;-65
2022/03/17 00:47:30;;;;;;;37.28;24.67;;;;;;;6.10;82.98;97074.41;2068526;28;20194;-64
2022/03/17 00:48:32;;;;;;;38.10;24.65;;;;;;;5.99;83.65;97076.63;2068166;28;20637;-64
2022/03/17 00:49:33;;;;;;;39.10;24.85;;;;;;;5.94;83.45;97073.34;2069713;28;20198;-64
2022/03/17 00:50:35;;;;;;;37.20;26.20;;;;;;;5.95;83.72;97085.47;2065507;28;20685;-64
2022/03/17 00:51:36;;;;;;;49.53;25.33;;;;;;;5.87;83.98;97083.16;2068646;28;20285;-64
2022/03/17 00:52:38;;;;;;;45.70;26.95;;;;;;;5.87;84.17;97082.31;2065507;28;20198;-64
2022/03/17 00:53:39;;;;;;;37.72;25.40;;;;;;;5.84;84.19;97080.69;2067727;28;20198;-64
2022/03/17 00:54:42;;;;;;;34.95;22.48;;;;;;;5.82;84.19;97082.53;2070168;28;20198;-64
2022/03/17 00:55:43;;;;;;;39.22;25.73;;;;;;;5.82;84.32;97081.66;2067875;28;20234;-64
2022/03/17 00:56:45;;;;;;;39.80;25.25;;;;;;;5.81;84.41;97082.56;2069064;28;20222;-64
2022/03/17 00:57:47;;;;;;;37.97;25.00;;;;;;;5.80;84.48;97086.06;2070581;28;20197;-64
2022/03/17 00:58:49;;;;;;;42.60;27.10;;;;;;;5.78;84.58;97088.72;2067580;28;20201;-64
2022/03/17 00:59:51;;;;;;;43.47;25.13;;;;;;;5.81;84.64;97082.56;2068855;28;20206;-64
2022/03/17 01:00:52;;;;;;;40.13;24.30;;;;;;;5.86;84.45;97084.06;2068630;28;20240;-65
2022/03/17 01:01:54;;;;;;;39.53;25.42;;;;;;;5.90;84.36;97072.63;2068695;28;20209;-64
2022/03/17 01:02:57;;;;;;;36.72;25.58;;;;;;;5.69;85.37;97071.78;2068192;28;20297;-64
2022/03/17 01:03:59;;;;;;;34.17;23.15;;;;;;;5.75;85.27;97078.47;2066100;28;20653;-65
2022/03/17 01:05:00;;;;;;;41.28;24.95;;;;;;;5.71;85.36;97071.72;2068002;28;20193;-64
2022/03/17 01:06:02;;;;;;;37.75;26.25;;;;;;;5.79;85.14;97063.59;2067979;28;20729;-64
2022/03/17 01:07:09;;;;;;;34.58;24.05;;;;;;;5.71;85.19;97066.53;2067399;28;20202;-65
2022/03/17 01:08:10;;;;;;;37.10;24.00;;;;;;;5.82;84.71;97063.44;2068749;28;20206;-64
2022/03/17 01:09:12;;;;;;;39.85;25.77;;;;;;;5.85;84.47;97069.38;2066065;28;20209;-65
2022/03/17 01:10:16;;;;;;;36.78;24.88;;;;;;;5.75;84.62;97065.47;2066820;28;20201;-64
2022/03/17 01:11:17;;;;;;;38.80;24.42;;;;;;;5.92;84.30;97070.81;2066459;28;20202;-64
2022/03/17 01:12:18;;;;;;;39.88;24.67;;;;;;;5.87;84.31;97067.56;2069296;28;20214;-64
2022/03/17 01:13:20;;;;;;;40.58;25.20;;;;;;;5.80;84.94;97068.75;2068658;28;20248;-65
2022/03/17 01:14:22;;;;;;;39.53;25.70;;;;;;;5.86;84.19;97060.69;2069512;28;20236;-64
2022/03/17 01:15:23;;;;;;;41.95;25.02;;;;;;;5.73;84.80;97055.13;2068319;28;20229;-64
2022/03/17 01:16:25;;;;;;;35.53;25.15;;;;;;;5.85;84.63;97068.53;2067959;28;20211;-64
2022/03/17 01:17:27;;;;;;;39.75;25.23;;;;;;;5.92;84.07;97069.97;2067824;28;20198;-64
2022/03/17 01:18:29;;;;;;;38.53;23.70;;;;;;;6.00;83.53;97069.66;2068785;28;20243;-64
2022/03/17 01:19:32;;;;;;;35.72;24.88;;;;;;;5.95;83.78;97075.06;2069156;28;20204;-64
2022/03/17 01:20:33;;;;;;;35.08;23.23;;;;;;;5.97;83.92;97075.00;2070129;28;20229;-64
2022/03/17 01:21:35;;;;;;;36.28;24.85;;;;;;;5.93;83.82;97077.69;2067750;28;20285;-65
2022/03/17 01:22:36;;;;;;;40.75;23.67;;;;;;;5.93;83.98;97066.44;2067042;28;20202;-65
2022/03/17 01:23:38;;;;;;;36.60;23.20;;;;;;;5.93;84.07;97069.06;2068795;28;20201;-64
2022/03/17 01:24:39;;;;;;;37.60;23.15;;;;;;;6.04;84.15;97061.66;2070349;28;20202;-65
2022/03/17 01:25:41;;;;;;;42.75;25.40;;;;;;;6.17;83.10;97059.38;2066409;28;20230;-64
2022/03/17 01:26:42;;;;;;;35.58;23.33;;;;;;;6.16;82.90;97057.69;2068542;28;20474;-64
2022/03/17 01:27:48;;;;;;;40.60;24.05;;;;;;;6.27;82.77;97065.00;2070262;28;20289;-64
2022/03/17 01:28:49;;;;;;;39.90;25.63;;;;;;;6.21;82.77;97062.69;2068332;28;20224;-64
2022/03/17 01:29:53;;;;;;;39.92;24.65;;;;;;;6.09;83.31;97062.28;2069631;28;20209;-65
2022/03/17 01:30:55;;;;;;;38.83;24.58;;;;;;;6.06;83.36;97051.22;2067716;28;20263;-64
2022/03/17 01:31:56;;;;;;;34.95;23.65;;;;;;;6.09;82.94;97058.88;2066686;28;20202;-65
2022/03/17 01:32:58;;;;;;;37.83;23.70;;;;;;;6.23;82.67;97060.84;2068262;28;20201;-64
2022/03/17 01:33:59;;;;;;;49.58;23.90;;;;;;;6.03;83.20;97062.56;2066875;28;20198;-64
2022/03/17 01:35:01;;;;;;;34.38;24.30;;;;;;;5.89;84.15;97064.91;2067750;28;20575;-64
2022/03/17 01:36:02;;;;;;;36.60;23.83;;;;;;;5.92;84.01;97064.78;2068655;28;20201;-64
2022/03/17 01:37:04;;;;;;;38.65;24.30;;;;;;;5.89;84.24;97060.53;2066953;28;20214;-65
2022/03/17 01:38:05;;;;;;;36.50;23.50;;;;;;;6.00;83.58;97062.72;2066878;28;20197;-64
2022/03/17 01:39:06;;;;;;;33.80;22.48;;;;;;;6.09;83.23;97072.69;2067004;28;20641;-64
2022/03/17 01:40:09;;;;;;;36.88;23.55;;;;;;;6.07;83.33;97069.31;2069352;28;20205;-64
2022/03/17 01:41:10;;;;;;;38.28;24.45;;;;;;;6.04;83.30;97058.25;2070212;28;20748;-65
2022/03/17 01:42:12;;;;;;;35.90;23.20;;;;;;;6.07;83.53;97064.13;2068630;28;20197;-65
2022/03/17 01:43:13;;;;;;;35.28;23.67;;;;;;;6.13;83.24;97063.00;2067389;28;20205;-64
2022/03/17 01:44:15;;;;;;;38.25;23.85;;;;;;;6.16;82.92;97067.25;2069339;28;20215;-65
2022/03/17 01:45:17;;;;;;;41.05;25.40;;;;;;;6.12;83.15;97056.97;2068203;28;20202;-65
2022/03/17 01:46:18;;;;;;;35.47;22.50;;;;;;;6.23;83.17;97063.47;2066379;28;20209;-65
2022/03/17 01:47:29;;;;;;;40.17;23.85;;;;;;;6.26;82.97;97052.94;2066439;28;20252;-64
2022/03/17 01:48:30;;;;;;;38.15;21.35;;;;;;;6.26;82.51;97058.13;2068753;28;20237;-64
2022/03/17 01:49:32;;;;;;;35.72;22.23;;;;;;;6.22;82.93;97064.38;2067891;28;20208;-64
2022/03/17 01:50:33;;;;;;;39.20;21.40;;;;;;;6.19;82.94;97062.75;2066020;28;20225;-64
2022/03/17 01:51:35;;;;;;;37.50;22.35;;;;;;;6.29;82.66;97061.44;2065303;28;20353;-64
2022/03/17 01:52:38;;;;;;;41.85;24.55;;;;;;;6.30;82.49;97059.69;2069487;28;20194;-66
2022/03/17 01:53:41;;;;;;;40.78;24.67;;;;;;;6.21;82.83;97063.53;2068142;28;20843;-64
2022/03/17 01:54:44;;;;;;;36.25;22.52;;;;;;;6.09;83.28;97061.47;2069270;28;20205;-64
2022/03/17 01:55:45;;;;;;;34.58;23.08;;;;;;;6.09;83.42;97057.09;2067289;28;20770;-65
2022/03/17 01:56:47;;;;;;;45.92;24.90;;;;;;;6.19;83.29;97061.91;2066349;28;20210;-64
2022/03/17 01:57:49;;;;;;;34.58;24.55;;;;;;;5.97;83.66;97036.84;2065812;28;20221;-65
2022/03/17 01:58:50;;;;;;;36.67;23.75;;;;;;;6.04;83.92;97060.84;2065671;28;20198;-64
2022/03/17 01:59:53;;;;;;;35.53;23.40;;;;;;;6.08;83.56;97060.63;2067632;28;20201;-64
2022/03/17 02:00:54;;;;;;;34.28;23.35;;;;;;;6.00;84.16;97062.72;2068115;28;20240;-65
2022/03/17 02:01:56;;;;;;;36.13;23.33;;;;;;;6.03;83.98;97059.97;2068239;28;20645;-64
2022/03/17 02:02:58;;;;;;;39.97;24.30;;;;;;;6.04;83.73;97051.28;2067231;28;20198;-64
2022/03/17 02:04:00;;;;;;;36.92;23.58;;;;;;;6.08;83.91;97063.22;2070268;28;20793;-65
2022/03/17 02:05:03;;;;;;;36.72;25.25;;;;;;;6.07;83.69;97058.91;2068188;28;20205;-64
2022/03/17 02:06:05;;;;;;;35.65;24.42;;;;;;;5.98;84.02;97058.47;2066304;28;20202;-64
2022/03/17 02:07:06;;;;;;;39.88;23.90;;;;;;;5.93;84.27;97053.44;2069258;28;20634;-65
2022/03/17 02:08:10;;;;;;;39.63;23.23;;;;;;;5.92;84.74;97062.19;2070725;28;20204;-65
2022/03/17 02:09:12;;;;;;;36.05;23.70;;;;;;;5.94;84.15;97055.16;2065855;28;20251;-65
2022/03/17 02:10:14;;;;;;;37.95;24.27;;;;;;;6.10;83.93;97061.41;2067073;28;20194;-64
2022/03/17 02:13:55;;;;;;;39.75;25.02;;;;;;;6.14;83.28;97065.56;2068685;28;20230;-64
2022/03/17 02:15:00;;;;;;;38.35;22.10;;;;;;;6.07;83.42;97058.09;2068936;28;20209;-65
2022/03/17 02:16:03;;;;;;;38.05;25.52;;;;;;;6.07;83.65;97066.72;2069044;28;20220;-64
2022/03/17 02:17:06;;;;;;;35.70;23.85;;;;;;;6.03;83.89;97062.56;2066919;28;20351;-65
2022/03/17 02:18:08;;;;;;;41.25;25.02;;;;;;;5.99;84.02;97067.97;2069406;28;20198;-65
2022/03/17 02:19:09;;;;;;;37.10;24.73;;;;;;;5.94;84.42;97060.34;2067513;28;20673;-65
2022/03/17 02:20:13;;;;;;;38.25;24.55;;;;;;;6.00;83.90;97060.13;2067212;28;20648;-65
2022/03/17 02:21:15;;;;;;;44.50;25.65;;;;;;;6.02;84.17;97062.63;2067367;28;20197;-64
2022/03/17 02:22:19;;;;;;;38.03;24.50;;;;;;;6.00;84.07;97062.72;2069371;28;20205;-65
2022/03/17 02:26:22;;;;;;;37.72;23.05;;;;;;;5.90;84.39;97061.38;2046585;29;20226;-65
2022/03/17 02:27:25;;;;;;;41.55;26.08;;;;;;;5.97;84.21;97062.84;2046383;29;20215;-65
2022/03/17 02:28:28;;;;;;;42.05;26.17;;;;;;;5.97;84.69;97072.41;2046608;29;20218;-65
2022/03/17 02:29:31;;;;;;;44.70;26.20;;;;;;;6.08;84.25;97063.22;2046711;29;20787;-65
2022/03/17 02:30:36;;;;;;;40.30;26.13;;;;;;;6.18;83.80;97061.06;2046025;29;20253;-65
2022/03/17 02:31:38;;;;;;;41.50;24.40;;;;;;;6.20;83.43;97067.03;2047388;28;20202;-65
2022/03/17 02:32:39;;;;;;;34.58;23.63;;;;;;;6.29;83.12;97071.00;2068158;28;20649;-65
2022/03/17 02:33:42;;;;;;;40.72;24.80;;;;;;;6.30;83.17;97070.94;2068429;28;20207;-65
2022/03/17 02:34:44;;;;;;;43.20;25.67;;;;;;;6.32;83.02;97063.06;2068253;28;20240;-65
2022/03/17 02:35:49;;;;;;;39.72;25.23;;;;;;;6.20;83.27;97071.41;2066696;28;20272;-65
2022/03/17 02:36:51;;;;;;;36.53;24.00;;;;;;;6.10;83.79;97066.59;2066015;28;20267;-65
2022/03/17 02:37:52;;;;;;;38.08;24.95;;;;;;;5.97;84.27;97057.63;2067450;28;20197;-65
2022/03/17 02:38:54;;;;;;;41.38;26.65;;;;;;;6.07;84.17;97060.69;2059848;28;20203;-65
2022/03/17 02:39:56;;;;;;;42.63;25.00;;;;;;;6.02;84.32;97055.69;2067456;28;20285;-64
2022/03/17 02:40:57;;;;;;;39.90;25.02;;;;;;;6.15;83.73;97066.41;2065287;28;20582;-65
2022/03/17 02:42:00;;;;;;;35.67;23.95;;;;;;;6.10;84.13;97063.16;2066818;28;20206;-64
2022/03/17 02:43:04;;;;;;;42.20;26.75;;;;;;;6.17;83.82;97068.94;2068678;28;20218;-65
2022/03/17 02:44:06;;;;;;;46.00;24.17;;;;;;;6.13;83.53;97063.00;2069328;28;20857;-64
2022/03/17 02:45:12;;;;;;;37.53;23.80;;;;;;;5.98;84.31;97063.69;2068055;28;20655;-65
2022/03/17 02:46:14;;;;;;;45.13;25.30;;;;;;;5.99;84.00;97063.63;2066473;28;20642;-65
2022/03/17 02:47:15;;;;;;;39.55;24.75;;;;;;;5.88;84.86;97068.38;2067231;28;20198;-64
2022/03/17 02:48:17;;;;;;;47.55;27.00;;;;;;;5.87;84.88;97074.50;2068163;28;20216;-64
2022/03/17 02:49:19;;;;;;;42.08;23.55;;;;;;;5.99;84.54;97067.97;2068357;28;20214;-64
2022/03/17 02:50:20;;;;;;;37.47;24.23;;;;;;;5.97;84.70;97062.84;2068431;28;20225;-64
2022/03/17 02:51:22;;;;;;;43.40;26.98;;;;;;;6.01;84.17;97061.78;2067467;28;20814;-64
2022/03/17 02:52:27;;;;;;;42.42;25.55;;;;;;;5.81;85.17;97070.41;2066911;28;20202;-64
2022/03/17 02:53:28;;;;;;;39.25;25.25;;;;;;;5.79;85.32;97068.81;2067467;28;20205;-64
2022/03/17 02:54:30;;;;;;;43.25;25.52;;;;;;;5.74;85.44;97071.56;2068952;28;20475;-64
2022/03/17 02:55:36;;;;;;;43.40;27.02;;;;;;;5.67;85.87;97071.00;2069731;28;20744;-64
2022/03/17 02:56:37;;;;;;;39.15;24.35;;;;;;;5.70;86.03;97070.88;2065398;28;20557;-64
2022/03/17 02:57:40;;;;;;;44.10;25.40;;;;;;;5.81;85.50;97073.00;2067962;28;20226;-64
2022/03/17 02:58:41;;;;;;;45.45;26.63;;;;;;;5.93;84.98;97071.66;2067371;28;20213;-64
2022/03/17 02:59:44;;;;;;;49.25;24.60;;;;;;;5.93;84.88;97059.50;2065937;28;20333;-64
2022/03/17 03:00:45;;;;;;;40.95;26.90;;;;;;;5.93;84.57;97066.44;2067066;28;20221;-64
2022/03/17 03:01:47;;;;;;;42.25;26.13;;;;;;;5.80;85.63;97065.28;2070147;28;20198;-64
2022/03/17 03:02:49;;;;;;;44.42;26.95;;;;;;;5.89;85.14;97064.91;2072315;28;20213;-63
2022/03/17 03:03:52;;;;;;;45.22;26.90;;;;;;;5.78;85.57;97070.53;2067225;28;20201;-63
2022/03/17 03:04:54;;;;;;;48.30;26.70;;;;;;;5.88;85.18;97073.59;2068447;28;20655;-64
2022/03/17 03:05:55;;;;;;;45.35;26.52;;;;;;;5.81;85.40;97069.56;2067588;28;20227;-64
2022/03/17 03:06:56;;;;;;;43.85;27.55;;;;;;;5.84;85.64;97069.44;2068011;28;20205;-64
2022/03/17 03:07:58;;;;;;;40.75;26.70;;;;;;;5.88;85.37;97071.00;2068752;28;20201;-64
2022/03/17 03:08:59;;;;;;;42.55;25.35;;;;;;;5.94;84.91;97075.97;2068320;28;20199;-63
2022/03/17 03:10:01;;;;;;;42.67;25.85;;;;;;;5.81;85.51;97073.00;2069641;28;20198;-64
2022/03/17 03:11:03;;;;;;;40.45;26.27;;;;;;;5.75;85.79;97074.13;2071571;28;20281;-64
2022/03/17 03:12:05;;;;;;;43.40;25.67;;;;;;;5.79;85.80;97080.03;2070835;28;20198;-64
2022/03/17 03:13:06;;;;;;;45.05;26.50;;;;;;;5.87;85.65;97079.72;2069556;28;20662;-63
2022/03/17 03:14:09;;;;;;;46.08;27.65;;;;;;;5.87;85.71;97072.75;2070232;28;20289;-64
2022/03/17 03:15:10;;;;;;;40.83;25.52;;;;;;;5.74;85.95;97064.66;2067887;28;20194;-64
2022/03/17 03:16:13;;;;;;;45.55;24.95;;;;;;;5.89;85.37;97075.28;2069734;28;20212;-64
2022/03/17 03:17:16;;;;;;;43.97;26.35;;;;;;;5.84;85.42;97074.63;2065208;28;20202;-64
2022/03/17 03:18:18;;;;;;;41.80;27.17;;;;;;;5.71;86.20;97080.34;2068815;28;20202;-64
2022/03/17 03:19:20;;;;;;;43.88;27.85;;;;;;;5.66;86.45;97079.69;2069956;28;20225;-64
2022/03/17 03:20:22;;;;;;;44.65;27.52;;;;;;;5.76;86.05;97085.34;2069393;28;20229;-64
2022/03/17 03:21:24;;;;;;;65.82;27.45;;;;;;;5.69;86.43;97082.16;2070078;28;20212;-64
2022/03/17 03:22:29;;;;;;;51.28;28.15;;;;;;;5.66;86.30;97073.66;2070397;28;20201;-64
2022/03/17 03:23:30;;;;;;;44.72;27.83;;;;;;;5.56;86.91;97080.97;2070479;28;20240;-64
2022/03/17 03:24:33;;;;;;;46.85;27.48;;;;;;;5.77;86.12;97081.00;2067667;28;20541;-64
2022/03/17 03:25:35;;;;;;;41.70;25.38;;;;;;;5.77;86.34;97081.00;2067803;28;20305;-64
2022/03/17 03:26:37;;;;;;;41.22;26.27;;;;;;;5.84;85.86;97087.63;2069569;28;20202;-64
2022/03/17 03:27:40;;;;;;;46.70;26.50;;;;;;;5.83;86.06;97085.97;2070672;28;20198;-64
2022/03/17 03:28:42;;;;;;;47.08;26.05;;;;;;;5.87;85.71;97082.31;2067718;28;20209;-64
2022/03/17 03:29:44;;;;;;;41.75;27.80;;;;;;;5.77;86.16;97086.22;2067401;28;20654;-64
2022/03/17 03:30:46;;;;;;;40.88;25.98;;;;;;;5.72;86.28;97086.38;2067517;28;20617;-64
2022/03/17 03:31:59;;;;;;;42.17;26.83;;;;;;;5.73;86.58;97090.69;2069812;28;20198;-63
2022/03/17 03:33:01;;;;;;;44.03;28.10;;;;;;;5.75;86.50;97089.72;2068180;28;20202;-64
2022/03/17 03:34:02;;;;;;;48.00;28.40;;;;;;;5.69;86.51;97084.78;2069643;28;20209;-64
2022/03/17 03:37:22;;;;;;;43.20;27.08;;;;;;;5.69;86.50;97086.53;2069379;28;20198;-64
2022/03/17 03:37:46;;;;;;;47.00;25.73;;;;;;;5.67;87.00;97091.78;2068587;28;20689;-64
2022/03/17 03:38:48;;;;;;;42.90;26.65;;;;;;;5.62;87.16;97098.06;2066687;28;20205;-64
2022/03/17 03:40:00;;;;;;;40.78;25.92;;;;;;;5.62;87.30;97095.47;2068131;28;20278;-64
2022/03/17 03:41:01;;;;;;;43.60;27.17;;;;;;;5.61;87.00;97092.03;2067050;28;20228;-64
2022/03/17 03:42:04;;;;;;;44.80;28.58;;;;;;;5.61;86.86;97086.84;2067827;28;20209;-64
2022/03/17 03:43:05;;;;;;;40.13;25.83;;;;;;;5.60;87.30;97098.13;2070847;28;20233;-64
2022/03/17 03:44:08;;;;;;;43.90;26.42;;;;;;;5.62;87.28;97103.28;2069475;28;20202;-64
2022/03/17 03:45:10;;;;;;;42.78;25.52;;;;;;;5.61;87.28;97101.59;2070321;28;20660;-64
2022/03/17 03:46:11;;;;;;;41.78;25.55;;;;;;;5.66;87.16;97102.25;2067276;28;20213;-64
2022/03/17 03:47:14;;;;;;;43.28;27.48;;;;;;;5.62;87.32;97111.91;2067072;28;20214;-64
2022/03/17 03:48:16;;;;;;;37.80;24.67;;;;;;;5.70;87.14;97109.00;2066056;28;20194;-64
2022/03/17 03:49:18;;;;;;;47.92;28.63;;;;;;;5.65;87.25;97114.41;2068793;28;20240;-64
2022/03/17 03:50:19;;;;;;;43.53;28.02;;;;;;;5.78;86.81;97109.53;2068364;28;20244;-64
2022/03/17 03:51:21;;;;;;;44.47;27.48;;;;;;;5.74;86.66;97105.34;2068387;28;20201;-64
2022/03/17 03:52:22;;;;;;;42.88;26.25;;;;;;;5.69;86.87;97115.94;2068515;28;20212;-64
2022/03/17 03:54:12;;;;;;;42.03;26.73;;;;;;;5.67;87.20;97109.97;2069865;28;20575;-64
2022/03/17 03:54:45;;;;;;;50.00;27.83;;;;;;;5.74;86.88;97119.22;2068933;28;20664;-64
2022/03/17 03:55:46;;;;;;;42.22;24.92;;;;;;;5.74;86.87;97119.22;2068280;28;20236;-64
2022/03/17 03:56:49;;;;;;;39.58;24.70;;;;;;;5.75;86.69;97113.09;2068833;28;20212;-64
2022/03/17 03:57:51;;;;;;;42.10;27.10;;;;;;;5.71;86.64;97114.13;2068451;28;20206;-64
2022/03/17 03:58:53;;;;;;;40.08;25.15;;;;;;;5.68;86.97;97113.41;2069720;28;20206;-64
2022/03/17 03:59:55;;;;;;;43.60;26.75;;;;;;;5.68;86.94;97116.84;2070353;28;20243;-64
2022/03/17 04:00:57;;;;;;;41.58;27.67;;;;;;;5.68;86.95;97123.81;2066582;28;20234;-64
2022/03/17 04:02:02;;;;;;;43.53;27.25;;;;;;;5.69;87.02;97121.16;2071269;28;20219;-64
2022/03/17 04:03:04;;;;;;;46.25;29.27;;;;;;;5.67;87.31;97120.38;2066436;28;20201;-64
2022/03/17 04:04:05;;;;;;;42.63;27.00;;;;;;;5.67;87.25;97128.16;2066024;28;20199;-64
2022/03/17 04:05:07;;;;;;;43.80;28.63;;;;;;;5.67;87.38;97127.34;2065775;28;20214;-64
2022/03/17 04:06:09;;;;;;;40.80;25.92;;;;;;;5.68;87.28;97123.81;2065544;28;20194;-64
2022/03/17 04:07:11;;;;;;;43.03;25.77;;;;;;;5.74;87.56;97128.75;2068605;28;20716;-64
2022/03/17 04:08:13;;;;;;;44.45;27.63;;;;;;;5.82;86.57;97115.44;2067238;28;20626;-64
2022/03/17 04:09:17;;;;;;;40.92;26.60;;;;;;;5.81;86.91;97124.16;2067282;28;20198;-64
2022/03/17 04:10:18;;;;;;;45.25;26.15;;;;;;;5.69;87.49;97121.16;2068742;28;20198;-64
2022/03/17 04:11:20;;;;;;;48.13;26.65;;;;;;;5.66;87.67;97123.03;2068555;28;20201;-64
2022/03/17 04:12:22;;;;;;;40.53;26.83;;;;;;;5.66;88.10;97126.47;2067194;28;20205;-64
2022/03/17 04:13:23;;;;;;;39.05;26.00;;;;;;;5.66;87.97;97121.25;2069082;28;20206;-64
2022/03/17 04:14:25;;;;;;;42.53;25.05;;;;;;;5.77;87.25;97127.81;2068318;28;20264;-65
2022/03/17 04:15:27;;;;;;;41.35;26.52;;;;;;;5.77;87.26;97128.63;2068796;28;20500;-64
2022/03/17 04:16:29;;;;;;;45.72;26.40;;;;;;;5.82;87.04;97128.44;2069527;28;20629;-64
2022/03/17 04:17:31;;;;;;;43.35;25.23;;;;;;;5.83;87.25;97122.34;2069019;28;20194;-65
2022/03/17 04:18:32;;;;;;;39.88;24.08;;;;;;;5.86;86.90;97128.25;2069257;28;20275;-64
2022/03/17 04:19:34;;;;;;;42.67;28.05;;;;;;;5.90;86.53;97129.81;2070120;28;20201;-64
2022/03/17 04:20:35;;;;;;;39.53;25.73;;;;;;;5.89;86.42;97124.69;2068554;28;20217;-64
2022/03/17 04:21:37;;;;;;;40.85;25.38;;;;;;;5.91;86.39;97130.66;2069850;28;20194;-64
2022/03/17 04:22:38;;;;;;;42.92;27.35;;;;;;;5.91;86.67;97123.69;2068346;28;20195;-64
2022/03/17 04:23:40;;;;;;;40.58;25.83;;;;;;;6.08;85.88;97130.84;2070017;28;20205;-64
2022/03/17 04:24:44;;;;;;;43.33;26.38;;;;;;;5.99;85.84;97139.00;2068035;28;20198;-64
2022/03/17 04:25:46;;;;;;;43.55;26.35;;;;;;;6.00;86.07;97138.13;2068507;28;20222;-64
2022/03/17 04:26:47;;;;;;;41.28;27.17;;;;;;;6.04;85.91;97131.88;2068122;28;20208;-64
2022/03/17 04:27:49;;;;;;;42.35;26.95;;;;;;;6.06;85.63;97134.41;2070541;28;20528;-66
2022/03/17 04:28:53;;;;;;;39.42;25.20;;;;;;;6.05;85.82;97138.75;2068863;28;20527;-65
2022/03/17 04:29:54;;;;;;;43.28;26.17;;;;;;;5.99;86.04;97133.81;2067683;28;20199;-65
2022/03/17 04:30:56;;;;;;;44.17;27.02;;;;;;;5.94;86.37;97143.56;2070237;28;20221;-65
2022/03/17 04:31:58;;;;;;;47.83;28.33;;;;;;;5.92;86.39;97129.78;2071217;28;20264;-65
2022/03/17 04:32:59;;;;;;;41.80;25.73;;;;;;;5.92;86.48;97141.00;2068663;28;20208;-65
2022/03/17 04:34:01;;;;;;;41.80;25.75;;;;;;;5.94;86.44;97143.56;2069870;28;20269;-65
2022/03/17 04:35:03;;;;;;;42.58;25.02;;;;;;;5.98;86.35;97132.13;2068832;28;20194;-66
2022/03/17 04:36:06;;;;;;;42.97;25.90;;;;;;;5.95;86.54;97134.84;2068453;28;20206;-66
2022/03/17 04:37:08;;;;;;;42.50;26.88;;;;;;;5.97;86.51;97129.59;2067613;28;20199;-65
2022/03/17 04:38:09;;;;;;;45.00;24.70;;;;;;;6.06;86.21;97137.03;2069194;28;20200;-65
2022/03/17 04:39:11;;;;;;;41.67;26.02;;;;;;;6.02;85.98;97144.09;2069834;28;20612;-65
2022/03/17 04:40:13;;;;;;;35.90;23.65;;;;;;;6.00;86.38;97151.13;2070446;28;20263;-65
2022/03/17 04:41:15;;;;;;;42.55;26.60;;;;;;;5.99;86.20;97144.22;2070140;28;20200;-65
2022/03/17 04:42:16;;;;;;;46.47;27.38;;;;;;;5.96;86.26;97144.38;2065567;28;20248;-65
2022/03/17 04:43:18;;;;;;;42.60;23.23;;;;;;;5.98;86.16;97145.16;2067608;28;20205;-65
2022/03/17 04:44:19;;;;;;;42.20;25.77;;;;;;;6.00;86.42;97145.91;2069006;28;20202;-65
2022/03/17 04:45:21;;;;;;;40.28;25.95;;;;;;;6.22;85.40;97152.81;2068611;28;20230;-65
2022/03/17 04:46:23;;;;;;;42.47;25.02;;;;;;;6.07;85.50;97152.53;2068351;28;20203;-66
2022/03/17 04:47:24;;;;;;;45.58;27.05;;;;;;;6.03;85.98;97156.19;2068487;28;20203;-65
2022/03/17 04:48:26;;;;;;;39.47;25.92;;;;;;;5.99;86.37;97146.81;2068392;28;20194;-65
2022/03/17 04:49:27;;;;;;;37.92;23.23;;;;;;;6.02;86.25;97153.63;2069819;28;20202;-65
2022/03/17 04:50:29;;;;;;;38.90;25.45;;;;;;;6.03;86.23;97156.19;2066725;28;20233;-65
2022/03/17 04:51:31;;;;;;;39.72;25.67;;;;;;;6.05;86.04;97159.56;2068885;28;20202;-65
2022/03/17 04:53:53;;;;;;;41.85;25.88;;;;;;;6.28;85.42;97163.78;2068944;28;20207;-65
2022/03/17 04:54:54;;;;;;;42.75;24.25;;;;;;;6.33;84.80;97159.25;2067756;28;20203;-65
2022/03/17 04:55:58;;;;;;;37.85;24.38;;;;;;;6.34;84.80;97160.09;2069185;28;20284;-65
2022/03/17 04:56:59;;;;;;;36.25;23.42;;;;;;;6.22;85.26;97166.66;2068094;28;20552;-65
2022/03/17 04:58:01;;;;;;;46.30;25.60;;;;;;;5.69;85.99;97099.53;2067955;28;20197;-65
2022/03/17 04:59:02;;;;;;;37.08;23.35;;;;;;;6.21;85.68;97169.31;2067557;28;20222;-65